createdAt,value
2023-04-09T00:00:03.687Z,93.28
2023-04-09T00:02:40.993Z,100.23
2023-04-09T00:05:11.141Z,94.20
2023-04-09T00:07:39.450Z,96.27
2023-04-09T00:10:09.127Z,98.30
2023-04-09T00:12:37.778Z,95.03
2023-04-09T00:15:11.074Z,93.40
2023-04-09T00:17:41.546Z,104.05
2023-04-09T00:20:12.380Z,94.53
2023-04-09T00:22:40.675Z,103.65
2023-04-09T00:25:09.838Z,107.77
2023-04-09T00:27:38.055Z,98.70
2023-04-09T00:30:08.244Z,102.10
2023-04-09T00:32:36.534Z,98.37
2023-04-09T00:35:05.389Z,100.97
2023-04-09T00:37:35.204Z,101.30
2023-04-09T00:40:04.243Z,111.97
2023-04-09T00:42:33.908Z,100.70
2023-04-09T00:45:02.591Z,104.17
2023-04-09T00:47:32.019Z,96.63
2023-04-09T00:50:02.587Z,99.50
2023-04-09T00:52:31.361Z,107.33
2023-04-09T00:55:05.534Z,101.30
2023-04-09T00:57:33.918Z,108.83
2023-04-09T01:00:02.544Z,114.53
2023-04-09T01:02:31.624Z,112.43
2023-04-09T01:05:00.704Z,108.33
2023-04-09T01:07:48.085Z,102.77
2023-04-09T01:10:29.414Z,104.73
2023-04-09T01:13:11.116Z,98.93
2023-04-09T01:15:47.745Z,103.20
2023-04-09T01:18:25.520Z,108.47
2023-04-09T01:21:01.763Z,97.90
2023-04-09T01:23:48.056Z,99.13
2023-04-09T01:26:39.273Z,100.87
2023-04-09T01:29:10.279Z,97.73
2023-04-09T01:31:43.056Z,106.73
2023-04-09T01:34:12.995Z,101.93
2023-04-09T01:36:44.005Z,114.97
2023-04-09T01:39:12.602Z,99.07
2023-04-09T01:41:42.305Z,101.57
2023-04-09T01:44:14.091Z,108.53
2023-04-09T01:46:42.693Z,108.87
2023-04-09T01:49:12.324Z,110.83
2023-04-09T01:51:40.812Z,95.67
2023-04-09T01:54:09.896Z,106.87
2023-04-09T01:56:45.845Z,113.77
2023-04-09T01:59:16.786Z,109.97
2023-04-09T02:01:48.266Z,104.30
2023-04-09T02:04:25.064Z,114.13
2023-04-09T02:07:03.310Z,108.83
2023-04-09T02:09:37.278Z,108.47
2023-04-09T02:12:11.168Z,109.77
2023-04-09T02:14:42.439Z,106.23
2023-04-09T02:17:10.997Z,110.83
2023-04-09T02:19:44.519Z,103.13
2023-04-09T02:22:14.233Z,106.87
2023-04-09T02:24:42.537Z,109.93
2023-04-09T02:27:10.857Z,103.13
2023-04-09T02:29:41.929Z,103.67
2023-04-09T02:32:10.549Z,101.47
2023-04-09T02:34:38.811Z,110.27
2023-04-09T02:37:07.326Z,99.43
2023-04-09T02:39:35.651Z,113.87
2023-04-09T02:42:03.924Z,113.43
2023-04-09T02:44:32.190Z,110.50
2023-04-09T02:47:01.917Z,119.33
2023-04-09T02:49:30.386Z,102.87
2023-04-09T02:51:58.564Z,106.70
2023-04-09T02:54:26.784Z,113.60
2023-04-09T02:56:54.989Z,115.70
2023-04-09T02:59:23.223Z,112.63
2023-04-09T03:01:51.630Z,114.57
2023-04-09T03:04:21.266Z,106.63
2023-04-09T03:06:51.527Z,121.47
2023-04-09T03:09:19.868Z,110.07
2023-04-09T03:11:48.069Z,119.77
2023-04-09T03:14:16.343Z,127.83
2023-04-09T03:16:46.048Z,132.63
2023-04-09T03:19:14.260Z,120.27
2023-04-09T03:21:44.505Z,139.70
2023-04-09T03:24:12.945Z,140.70
2023-04-09T03:26:41.786Z,132.87
2023-04-09T03:29:10.827Z,135.33
2023-04-09T03:31:39.066Z,138.13
2023-04-09T03:34:08.439Z,140.90
2023-04-09T03:36:36.852Z,131.90
2023-04-09T03:39:11.901Z,146.97
2023-04-09T03:41:43.673Z,132.10
2023-04-09T03:44:15.906Z,138.37
2023-04-09T03:47:10.516Z,134.80
2023-04-09T03:49:39.976Z,135.47
2023-04-09T03:52:29.084Z,132.13
2023-04-09T03:55:07.905Z,131.57
2023-04-09T03:57:36.395Z,121.93
2023-04-09T04:00:08.151Z,118.83
2023-04-09T04:02:53.002Z,126.63
2023-04-09T04:05:40.258Z,124.83
2023-04-09T04:08:11.604Z,124.67
2023-04-09T04:10:41.394Z,126.77
2023-04-09T04:13:11.016Z,122.67
2023-04-09T04:15:48.432Z,123.00
2023-04-09T04:18:18.329Z,110.33
2023-04-09T04:20:50.475Z,113.77
2023-04-09T04:23:18.959Z,108.57
2023-04-09T04:25:56.947Z,114.23
2023-04-09T04:28:35.602Z,118.40
2023-04-09T04:31:08.831Z,116.23
2023-04-09T04:33:37.813Z,116.57
2023-04-09T04:36:14.219Z,108.00
2023-04-09T04:38:48.854Z,114.30
2023-04-09T04:41:26.223Z,102.10
2023-04-09T04:44:05.728Z,100.87
2023-04-09T04:46:34.195Z,105.43
2023-04-09T04:49:02.509Z,111.47
2023-04-09T04:51:32.617Z,109.43
2023-04-09T04:54:08.681Z,111.03
2023-04-09T04:56:38.720Z,117.37
2023-04-09T04:59:18.530Z,101.90
2023-04-09T05:01:57.678Z,106.57
2023-04-09T05:04:27.352Z,95.37
2023-04-09T05:06:57.551Z,98.23
2023-04-09T05:09:27.240Z,91.07
2023-04-09T05:12:07.278Z,100.03
2023-04-09T05:14:36.349Z,96.23
2023-04-09T05:17:04.578Z,99.27
2023-04-09T05:19:42.305Z,99.17
2023-04-09T05:22:12.052Z,98.80
2023-04-09T05:24:40.672Z,89.93
2023-04-09T05:27:12.046Z,95.73
2023-04-09T05:29:42.016Z,88.50
2023-04-09T05:32:11.144Z,98.70
2023-04-09T05:34:41.552Z,96.43
2023-04-09T05:37:10.288Z,94.83
2023-04-09T05:39:38.735Z,95.13
2023-04-09T05:42:07.006Z,100.07
2023-04-09T05:44:53.322Z,96.67
2023-04-09T05:47:22.914Z,92.07
2023-04-09T05:50:02.679Z,98.23
2023-04-09T05:52:31.446Z,101.57
2023-04-09T05:54:59.886Z,107.43
2023-04-09T05:57:40.686Z,109.17
2023-04-09T06:00:11.960Z,116.13
2023-04-09T06:02:47.583Z,99.70
2023-04-09T06:05:16.063Z,104.93
2023-04-09T06:07:44.329Z,111.47
2023-04-09T06:10:13.043Z,112.70
2023-04-09T06:12:41.309Z,108.70
2023-04-09T06:15:12.717Z,102.80
2023-04-09T06:17:41.144Z,115.27
2023-04-09T06:20:11.144Z,112.40
2023-04-09T06:22:39.372Z,115.33
2023-04-09T06:25:08.801Z,103.77
2023-04-09T06:27:37.151Z,104.73
2023-04-09T06:30:06.785Z,115.30
2023-04-09T06:32:46.868Z,114.90
2023-04-09T06:35:22.086Z,109.67
2023-04-09T06:37:50.808Z,120.53
2023-04-09T06:40:21.357Z,115.20
2023-04-09T06:42:51.207Z,113.37
2023-04-09T06:45:25.321Z,115.13
2023-04-09T06:47:55.012Z,115.23
2023-04-09T06:50:23.353Z,117.43
2023-04-09T06:52:52.960Z,110.13
2023-04-09T06:55:22.526Z,111.90
2023-04-09T06:57:50.812Z,108.23
2023-04-09T07:00:19.043Z,101.77
2023-04-09T07:02:47.674Z,104.23
2023-04-09T07:05:17.521Z,105.17
2023-04-09T07:07:47.073Z,95.17
2023-04-09T07:10:15.549Z,100.07
2023-04-09T07:12:44.172Z,94.37
2023-04-09T07:15:12.690Z,83.37
2023-04-09T07:17:41.114Z,90.03
2023-04-09T07:20:10.747Z,81.07
2023-04-09T07:22:40.635Z,79.87
2023-04-09T07:25:10.391Z,77.63
2023-04-09T07:27:38.662Z,85.57
2023-04-09T07:30:08.775Z,81.53
2023-04-09T07:32:37.775Z,82.82
2023-04-09T07:35:09.608Z,89.03
2023-04-09T07:37:37.997Z,77.47
2023-04-09T07:40:09.663Z,73.28
2023-04-09T07:42:39.334Z,71.35
2023-04-09T07:45:09.353Z,69.70
2023-04-09T07:47:37.794Z,67.38
2023-04-09T07:50:07.766Z,74.63
2023-04-09T07:52:36.245Z,70.50
2023-04-09T07:55:05.189Z,70.28
2023-04-09T07:57:35.004Z,66.15
2023-04-09T08:00:03.824Z,67.57
2023-04-09T08:02:41.607Z,69.27
2023-04-09T08:05:10.909Z,69.77
2023-04-09T08:07:39.458Z,66.93
2023-04-09T08:10:13.891Z,62.97
2023-04-09T08:12:43.806Z,59.13
2023-04-09T08:15:12.479Z,61.43
2023-04-09T08:17:40.954Z,62.33
2023-04-09T08:20:10.932Z,69.13
2023-04-09T08:22:41.196Z,57.17
2023-04-09T08:25:09.901Z,56.22
2023-04-09T08:27:39.661Z,57.72
2023-04-09T08:30:12.237Z,56.20
2023-04-09T08:32:40.605Z,59.28
2023-04-09T08:35:10.332Z,54.70
2023-04-09T08:37:38.571Z,41.65
2023-04-09T08:40:09.867Z,37.97
2023-04-09T08:42:44.326Z,41.60
2023-04-09T08:45:14.855Z,47.42
2023-04-09T08:47:45.753Z,46.08
2023-04-09T08:50:15.770Z,41.93
2023-04-09T08:52:47.398Z,44.03
2023-04-09T08:55:15.763Z,49.33
2023-04-09T08:57:44.350Z,47.17
2023-04-09T09:00:15.257Z,42.20
2023-04-09T09:03:06.105Z,34.90
2023-04-09T09:05:40.526Z,37.83
2023-04-09T09:08:10.985Z,36.83
2023-04-09T09:10:41.927Z,42.05
2023-04-09T09:13:23.365Z,44.00
2023-04-09T09:15:56.211Z,46.05
2023-04-09T09:18:42.038Z,64.28
2023-04-09T09:21:14.407Z,55.13
2023-04-09T09:23:43.358Z,59.88
2023-04-09T09:26:16.218Z,60.17
2023-04-09T09:28:44.947Z,62.25
2023-04-09T09:31:15.539Z,57.65
2023-04-09T09:33:44.426Z,64.80
2023-04-09T09:36:12.965Z,63.20
2023-04-09T09:39:02.124Z,61.88
2023-04-09T09:41:30.961Z,63.63
2023-04-09T09:43:59.375Z,59.83
2023-04-09T09:46:35.274Z,57.65
2023-04-09T09:49:03.641Z,60.85
2023-04-09T09:51:36.829Z,61.17
2023-04-09T09:54:08.064Z,55.15
2023-04-09T09:56:40.402Z,53.08
2023-04-09T09:59:16.779Z,59.70
2023-04-09T10:01:49.263Z,52.78
2023-04-09T10:04:21.278Z,53.92
2023-04-09T10:06:52.865Z,54.65
2023-04-09T10:09:28.886Z,50.08
2023-04-09T10:12:02.335Z,51.10
2023-04-09T10:14:31.232Z,47.92
2023-04-09T10:17:00.984Z,46.60
2023-04-09T10:19:30.724Z,49.15
2023-04-09T10:22:06.680Z,47.03
2023-04-09T10:24:36.991Z,47.08
2023-04-09T10:27:15.050Z,45.70
2023-04-09T10:29:46.161Z,42.90
2023-04-09T10:32:22.248Z,46.67
2023-04-09T10:34:52.273Z,47.22
2023-04-09T10:37:25.309Z,49.15
2023-04-09T10:39:56.255Z,52.83
2023-04-09T10:42:33.186Z,50.15
2023-04-09T10:45:09.511Z,49.92
2023-04-09T10:47:42.598Z,44.63
2023-04-09T10:50:20.284Z,45.78
2023-04-09T10:52:52.969Z,41.58
2023-04-09T10:55:36.241Z,44.50
2023-04-09T10:58:07.181Z,41.85
2023-04-09T11:00:40.811Z,40.72
2023-04-09T11:03:23.990Z,39.67
2023-04-09T11:06:01.182Z,40.38
2023-04-09T11:08:32.054Z,40.42
2023-04-09T11:11:01.750Z,36.38
2023-04-09T11:13:32.166Z,40.10
2023-04-09T11:16:01.243Z,35.45
2023-04-09T11:18:34.373Z,38.30
2023-04-09T11:21:04.921Z,40.67
2023-04-09T11:23:34.206Z,40.70
2023-04-09T11:26:03.138Z,39.08
2023-04-09T11:28:31.655Z,40.15
2023-04-09T11:30:59.921Z,39.05
2023-04-09T11:33:34.815Z,38.83
2023-04-09T11:36:05.788Z,34.20
2023-04-09T11:38:34.167Z,39.65
2023-04-09T11:41:03.414Z,40.45
2023-04-09T11:43:31.720Z,39.13
2023-04-09T11:46:00.916Z,40.78
2023-04-09T11:48:29.398Z,38.28
2023-04-09T11:50:59.292Z,38.97
2023-04-09T11:53:32.564Z,37.55
2023-04-09T11:56:01.540Z,37.50
2023-04-09T11:58:29.900Z,38.17
2023-04-09T12:01:00.457Z,40.40
2023-04-09T12:03:33.789Z,41.83
2023-04-09T12:06:06.218Z,44.08
2023-04-09T12:08:37.213Z,36.35
2023-04-09T12:11:13.828Z,46.38
2023-04-09T12:13:44.471Z,47.97
2023-04-09T12:16:13.560Z,58.63
2023-04-09T12:18:42.504Z,53.33
2023-04-09T12:21:12.771Z,54.00
2023-04-09T12:23:41.120Z,54.00
2023-04-09T12:26:09.361Z,55.80
2023-04-09T12:28:37.600Z,53.20
2023-04-09T12:31:06.001Z,55.03
2023-04-09T12:33:34.167Z,49.78
2023-04-09T12:36:02.975Z,48.47
2023-04-09T12:38:32.836Z,51.42
2023-04-09T12:41:01.123Z,51.58
2023-04-09T12:43:29.481Z,46.40
2023-04-09T12:45:57.925Z,50.85
2023-04-09T12:48:26.780Z,50.47
2023-04-09T12:50:55.303Z,53.30
2023-04-09T12:53:23.582Z,54.65
2023-04-09T12:55:53.322Z,51.03
2023-04-09T12:58:21.710Z,48.70
2023-04-09T13:00:50.318Z,46.72
2023-04-09T13:03:18.797Z,46.72
2023-04-09T13:05:47.172Z,47.13
2023-04-09T13:08:16.140Z,39.95
2023-04-09T13:10:44.800Z,40.53
2023-04-09T13:13:14.722Z,38.13
2023-04-09T13:15:44.703Z,38.72
2023-04-09T13:18:13.877Z,34.88
2023-04-09T13:20:42.144Z,39.25
2023-04-09T13:23:10.533Z,33.97
2023-04-09T13:25:38.788Z,29.45
2023-04-09T13:28:06.960Z,38.10
2023-04-09T13:30:36.699Z,41.95
2023-04-09T13:33:05.221Z,37.90
2023-04-09T13:35:33.571Z,38.00
2023-04-09T13:38:01.877Z,38.90
2023-04-09T13:40:30.331Z,41.17
2023-04-09T13:42:58.634Z,34.72
2023-04-09T13:45:26.881Z,38.65
2023-04-09T13:47:56.452Z,41.72
2023-04-09T13:50:24.865Z,43.78
2023-04-09T13:52:53.095Z,37.95
2023-04-09T13:55:21.458Z,43.28
2023-04-09T13:57:49.735Z,37.45
2023-04-09T14:00:19.746Z,36.97
2023-04-09T14:02:48.159Z,35.75
2023-04-09T14:05:17.957Z,35.20
2023-04-09T14:07:46.303Z,36.40
2023-04-09T14:10:14.528Z,32.05
2023-04-09T14:12:43.194Z,32.72
2023-04-09T14:15:12.277Z,33.30
2023-04-09T14:17:41.174Z,37.92
2023-04-09T14:20:10.422Z,38.35
2023-04-09T14:22:41.340Z,32.22
2023-04-09T14:25:10.727Z,36.42
2023-04-09T14:27:38.965Z,37.47
2023-04-09T14:30:11.921Z,41.30
2023-04-09T14:32:40.758Z,38.85
2023-04-09T14:35:10.207Z,36.22
2023-04-09T14:37:40.952Z,31.70
2023-04-09T14:40:10.443Z,33.90
2023-04-09T14:42:38.630Z,26.48
2023-04-09T14:45:07.834Z,26.77
2023-04-09T14:47:36.422Z,33.20
2023-04-09T14:50:04.933Z,30.95
2023-04-09T14:52:33.457Z,28.67
2023-04-09T14:55:03.127Z,29.48
2023-04-09T14:57:31.366Z,27.75
2023-04-09T14:59:59.661Z,27.38
2023-04-09T15:02:28.135Z,30.25
2023-04-09T15:04:56.638Z,28.25
2023-04-09T15:07:25.317Z,30.98
2023-04-09T15:09:53.676Z,29.50
2023-04-09T15:12:23.364Z,29.55
2023-04-09T15:14:51.636Z,30.35
2023-04-09T15:17:20.577Z,28.38
2023-04-09T15:19:48.821Z,26.77
2023-04-09T15:22:17.204Z,25.58
2023-04-09T15:24:45.533Z,25.83
2023-04-09T15:27:13.778Z,28.23
2023-04-09T15:29:43.396Z,30.50
2023-04-09T15:32:11.859Z,28.17
2023-04-09T15:34:40.238Z,28.90
2023-04-09T15:37:08.536Z,30.35
2023-04-09T15:39:36.826Z,30.95
2023-04-09T15:42:06.715Z,29.00
2023-04-09T15:44:36.298Z,29.23
2023-04-09T15:47:06.056Z,29.15
2023-04-09T15:49:48.565Z,30.20
2023-04-09T15:52:17.298Z,36.08
2023-04-09T15:54:45.774Z,31.70
2023-04-09T15:57:14.322Z,28.90
2023-04-09T15:59:42.566Z,29.67
2023-04-09T16:02:12.262Z,28.70
2023-04-09T16:04:40.578Z,31.23
2023-04-09T16:07:09.302Z,29.25
2023-04-09T16:09:37.702Z,29.42
2023-04-09T16:12:06.404Z,31.08
2023-04-09T16:14:34.816Z,29.95
2023-04-09T16:17:03.084Z,28.98
2023-04-09T16:19:32.960Z,27.85
2023-04-09T16:22:01.653Z,24.13
2023-04-09T16:24:31.435Z,25.27
2023-04-09T16:26:59.663Z,26.05
2023-04-09T16:29:28.447Z,25.90
2023-04-09T16:31:56.992Z,24.27
2023-04-09T16:34:25.657Z,31.30
2023-04-09T16:36:55.278Z,25.23
2023-04-09T16:39:23.544Z,30.80
2023-04-09T16:41:52.598Z,29.10
2023-04-09T16:44:20.816Z,29.90
2023-04-09T16:46:49.128Z,29.25
2023-04-09T16:49:17.766Z,28.50
2023-04-09T16:51:46.669Z,29.23
2023-04-09T16:54:16.252Z,30.52
2023-04-09T16:56:44.423Z,30.10
2023-04-09T16:59:13.433Z,27.38
2023-04-09T17:01:41.822Z,31.35
2023-04-09T17:04:10.151Z,33.28
2023-04-09T17:06:38.417Z,36.38
2023-04-09T17:09:07.446Z,37.97
2023-04-09T17:11:37.921Z,33.13
2023-04-09T17:14:06.397Z,36.42
2023-04-09T17:16:34.711Z,33.75
2023-04-09T17:19:02.984Z,36.22
2023-04-09T17:21:31.353Z,39.90
2023-04-09T17:23:59.669Z,37.08
2023-04-09T17:26:28.201Z,35.35
2023-04-09T17:28:57.728Z,37.45
2023-04-09T17:31:26.755Z,36.58
2023-04-09T17:33:55.160Z,39.50
2023-04-09T17:36:23.649Z,36.50
2023-04-09T17:38:53.061Z,40.20
2023-04-09T17:41:21.539Z,38.20
2023-04-09T17:43:49.856Z,42.03
2023-04-09T17:46:19.637Z,41.67
2023-04-09T17:48:47.900Z,43.45
2023-04-09T17:51:19.273Z,40.97
2023-04-09T17:53:48.189Z,43.20
2023-04-09T17:56:18.152Z,40.88
2023-04-09T17:58:46.468Z,45.25
2023-04-09T18:01:14.938Z,42.58
2023-04-09T18:03:45.647Z,41.15
2023-04-09T18:06:15.284Z,41.08
2023-04-09T18:08:43.672Z,42.03
2023-04-09T18:11:15.427Z,42.58
2023-04-09T18:13:43.789Z,42.08
2023-04-09T18:16:13.063Z,49.30
2023-04-09T18:18:41.777Z,38.28
2023-04-09T18:21:11.336Z,43.95
2023-04-09T18:23:40.277Z,49.70
2023-04-09T18:26:08.631Z,43.53
2023-04-09T18:28:37.025Z,45.10
2023-04-09T18:31:05.769Z,48.00
2023-04-09T18:33:34.133Z,50.10
2023-04-09T18:36:03.160Z,46.33
2023-04-09T18:38:33.090Z,43.70
2023-04-09T18:41:02.026Z,45.47
2023-04-09T18:43:30.419Z,48.35
2023-04-09T18:45:59.059Z,48.53
2023-04-09T18:48:27.596Z,42.03
2023-04-09T18:50:55.838Z,47.25
2023-04-09T18:53:24.996Z,43.67
2023-04-09T18:55:54.554Z,47.72
2023-04-09T18:58:22.757Z,47.58
2023-04-09T19:00:51.573Z,43.20
2023-04-09T19:03:20.395Z,43.20
2023-04-09T19:05:49.410Z,48.78
2023-04-09T19:08:17.684Z,47.28
2023-04-09T19:10:47.416Z,48.22
2023-04-09T19:13:16.967Z,48.58
2023-04-09T19:15:45.887Z,44.80
2023-04-09T19:18:14.618Z,42.30
2023-04-09T19:20:42.839Z,49.33
2023-04-09T19:23:11.117Z,46.30
2023-04-09T19:25:39.415Z,42.80
2023-04-09T19:28:07.683Z,45.20
2023-04-09T19:30:37.300Z,44.60
2023-04-09T19:33:05.564Z,44.78
2023-04-09T19:35:35.687Z,46.92
2023-04-09T19:38:05.118Z,44.88
2023-04-09T19:40:33.499Z,46.25
2023-04-09T19:43:01.928Z,44.95
2023-04-09T19:45:30.306Z,44.92
2023-04-09T19:48:00.019Z,43.53
2023-04-09T19:50:28.960Z,47.40
2023-04-09T19:52:59.819Z,44.72
2023-04-09T19:55:28.140Z,46.67
2023-04-09T19:57:56.418Z,48.40
2023-04-09T20:00:24.715Z,47.28
2023-04-09T20:02:53.387Z,42.08
2023-04-09T20:05:23.249Z,43.20
2023-04-09T20:07:52.517Z,46.47
2023-04-09T20:10:21.488Z,42.80
2023-04-09T20:12:51.285Z,38.47
2023-04-09T20:15:20.838Z,43.00
2023-04-09T20:17:49.654Z,40.28
2023-04-09T20:20:20.027Z,41.83
2023-04-09T20:22:55.663Z,50.05
2023-04-09T20:25:25.568Z,43.05
2023-04-09T20:27:56.831Z,46.88
2023-04-09T20:30:25.089Z,46.60
2023-04-09T20:32:53.435Z,42.40
2023-04-09T20:35:21.703Z,44.63
2023-04-09T20:37:51.292Z,41.13
2023-04-09T20:40:19.672Z,45.22
2023-04-09T20:42:48.080Z,47.35
2023-04-09T20:45:16.711Z,48.95
2023-04-09T20:47:45.240Z,42.03
2023-04-09T20:50:13.659Z,42.25
2023-04-09T20:52:41.920Z,40.28
2023-04-09T20:55:11.746Z,45.55
2023-04-09T20:57:39.997Z,45.08
2023-04-09T21:00:10.128Z,39.70
2023-04-09T21:02:40.362Z,39.47
2023-04-09T21:05:23.666Z,42.08
2023-04-09T21:07:52.839Z,38.60
2023-04-09T21:10:22.627Z,39.20
2023-04-09T21:12:50.852Z,42.22
2023-04-09T21:15:19.409Z,38.80
2023-04-09T21:17:47.692Z,41.58
2023-04-09T21:20:16.561Z,37.38
2023-04-09T21:22:44.855Z,40.70
2023-04-09T21:25:15.216Z,41.33
2023-04-09T21:27:45.772Z,45.15
2023-04-09T21:30:14.144Z,39.83
2023-04-09T21:32:42.647Z,40.22
2023-04-09T21:35:11.229Z,39.80
2023-04-09T21:37:39.563Z,40.33
2023-04-09T21:40:09.742Z,40.78
2023-04-09T21:42:37.987Z,40.45
2023-04-09T21:45:08.933Z,38.25
2023-04-09T21:47:37.558Z,43.28
2023-04-09T21:50:06.800Z,40.50
2023-04-09T21:52:35.199Z,41.25
2023-04-09T21:55:03.580Z,39.67
2023-04-09T21:57:32.214Z,38.08
2023-04-09T22:00:00.632Z,40.03
2023-04-09T22:02:30.541Z,39.40
2023-04-09T22:05:00.914Z,40.23
2023-04-09T22:07:29.625Z,37.87
2023-04-09T22:09:58.838Z,38.42
2023-04-09T22:12:27.191Z,43.30
2023-04-09T22:14:56.267Z,37.20
2023-04-09T22:17:24.550Z,34.87
2023-04-09T22:19:54.563Z,40.10
2023-04-09T22:22:22.771Z,39.90
2023-04-09T22:24:51.421Z,42.47
2023-04-09T22:27:19.671Z,37.70
2023-04-09T22:29:48.093Z,38.67
2023-04-09T22:32:16.665Z,39.90
2023-04-09T22:34:44.990Z,39.57
2023-04-09T22:37:16.960Z,38.70
2023-04-09T22:39:45.422Z,37.90
2023-04-09T22:42:13.742Z,43.60
2023-04-09T22:44:42.011Z,37.03
2023-04-09T22:47:10.309Z,37.10
2023-04-09T22:49:38.732Z,40.37
2023-04-09T22:52:07.026Z,37.15
2023-04-09T22:54:37.887Z,40.53
2023-04-09T22:57:07.327Z,37.58
2023-04-09T23:02:06.944Z,42.78
2023-04-09T23:04:35.598Z,38.05
2023-04-09T23:07:03.969Z,43.03
2023-04-09T23:09:32.237Z,41.03
2023-04-09T23:12:02.671Z,37.63
2023-04-09T23:14:31.089Z,39.15
2023-04-09T23:16:59.286Z,39.17
2023-04-09T23:19:27.600Z,37.90
2023-04-09T23:21:55.965Z,39.07
2023-04-09T23:24:35.338Z,38.70
2023-04-09T23:27:05.118Z,42.38
2023-04-09T23:29:33.410Z,39.17
2023-04-09T23:32:02.764Z,36.30
2023-04-09T23:34:31.205Z,42.93
2023-04-09T23:36:59.504Z,41.67
2023-04-09T23:39:28.034Z,40.40
2023-04-09T23:41:56.334Z,39.57
2023-04-09T23:44:25.965Z,43.20
2023-04-09T23:46:54.258Z,42.37
2023-04-09T23:49:22.630Z,40.85
2023-04-09T23:51:52.557Z,45.60
2023-04-09T23:54:21.257Z,48.80
2023-04-09T23:56:49.560Z,61.80
2023-04-09T23:59:17.787Z,64.07
